Time;durP1;ratioP1;P1;durP2;ratioP2;P2;SDS_P1;SDS_P2;PMS_P1;PMS_P2;Temp;Humidity;BMP_temperature;BMP_pressure;BME280_temperature;BME280_humidity;BME280_pressure;Samples;Min_cycle;Max_cycle;Signal;HPM_P1;HPM_P2
2022/01/21 00:00:33;;;;;;;19.35;3.13;;;2.90;78.90;;;;;;5034633;28;20492;-44
2022/01/21 00:03:01;;;;;;;13.70;3.17;;;2.90;79.30;;;;;;5034291;28;20350;-44
2022/01/21 00:05:28;;;;;;;11.18;2.38;;;2.90;79.80;;;;;;5033913;28;20030;-45
2022/01/21 00:07:56;;;;;;;7.88;1.90;;;2.90;79.90;;;;;;5034658;28;20738;-44
2022/01/21 00:10:21;;;;;;;9.93;3.05;;;2.90;80.30;;;;;;5034061;28;20064;-47
2022/01/21 00:12:53;;;;;;;11.40;2.60;;;2.70;80.80;;;;;;5017126;28;20435;-46
2022/01/21 00:15:19;;;;;;;17.58;4.30;;;2.70;81.00;;;;;;5034276;28;20656;-44
2022/01/21 00:17:45;;;;;;;11.48;3.25;;;2.60;81.30;;;;;;5034337;28;20040;-45
2022/01/21 00:31:07;;;;;;;18.58;3.42;;;2.70;82.30;;;;;;5015982;28;20103;-46
2022/01/21 00:33:38;;;;;;;11.23;2.00;;;2.80;82.30;;;;;;5052916;28;20041;-47
2022/01/21 00:36:05;;;;;;;18.42;2.50;;;2.90;82.20;;;;;;5035289;28;20068;-47
2022/01/21 00:38:31;;;;;;;14.32;2.65;;;2.90;82.20;;;;;;5034043;28;20021;-46
2022/01/21 00:41:00;;;;;;;17.05;2.67;;;2.90;82.60;;;;;;5047515;28;20191;-49
2022/01/21 00:43:32;;;;;;;19.30;3.00;;;3.00;82.90;;;;;;5032974;28;20045;-50
2022/01/21 00:45:59;;;;;;;24.40;3.03;;;3.10;84.30;;;;;;5033793;28;20272;-52
2022/01/21 00:48:26;;;;;;;14.45;2.92;;;3.00;85.10;;;;;;5033893;28;20091;-50
2022/01/21 00:50:52;;;;;;;20.17;3.33;;;2.90;86.00;;;;;;5044044;28;20033;-49
2022/01/21 00:53:17;;;;;;;16.73;3.40;;;2.90;85.90;;;;;;5034032;28;20025;-49
2022/01/21 00:55:43;;;;;;;9.82;2.70;;;2.80;85.40;;;;;;5033117;28;20400;-48
2022/01/21 00:58:08;;;;;;;17.90;2.70;;;2.70;85.10;;;;;;5032204;28;20037;-48
2022/01/21 01:00:36;;;;;;;16.10;2.67;;;2.70;84.40;;;;;;5033238;28;20071;-48
2022/01/21 01:03:02;;;;;;;14.23;1.95;;;2.70;83.90;;;;;;5033669;28;20458;-47
2022/01/21 01:05:30;;;;;;;17.60;2.45;;;2.60;83.60;;;;;;5032979;28;20034;-47
2022/01/21 01:07:55;;;;;;;13.02;2.65;;;2.50;83.30;;;;;;5033540;28;20030;-48
2022/01/21 01:10:37;;;;;;;11.65;1.65;;;2.50;83.30;;;;;;5032506;28;20041;-47
2022/01/21 01:21:25;;;;;;;7.10;1.88;;;2.20;82.30;;;;;;5024687;28;20442;-48
2022/01/21 01:29:24;;;;;;;15.25;2.03;;;2.20;83.30;;;;;;5032655;28;20036;-47
2022/01/21 01:31:51;;;;;;;10.13;2.03;;;2.40;83.60;;;;;;5038734;28;20389;-45
2022/01/21 01:34:17;;;;;;;10.23;2.33;;;2.40;84.40;;;;;;5034923;28;20366;-48
2022/01/21 01:36:45;;;;;;;18.77;3.45;;;2.40;84.80;;;;;;5032293;28;20443;-46
2022/01/21 01:41:52;;;;;;;;;;;2.30;85.50;;;;;;5033722;28;20335;-47
2022/01/21 01:49:48;;;;;;;13.18;2.28;;;2.10;86.60;;;;;;5033286;28;20056;-44
2022/01/21 01:52:16;;;;;;;14.30;4.25;;;2.00;86.60;;;;;;5033149;28;20029;-44
2022/01/21 01:54:50;;;;;;;13.93;2.10;;;2.00;86.70;;;;;;5032326;28;20443;-44
2022/01/21 01:57:16;;;;;;;11.80;2.10;;;1.90;86.90;;;;;;5032192;28;20359;-45
2022/01/21 01:59:41;;;;;;;8.73;2.03;;;2.00;86.90;;;;;;5031942;28;20029;-45
2022/01/21 02:02:12;;;;;;;19.13;4.63;;;1.90;86.90;;;;;;5032858;28;20430;-45
2022/01/21 02:04:43;;;;;;;9.07;1.98;;;2.00;86.90;;;;;;5031906;28;20367;-45
2022/01/21 02:07:10;;;;;;;8.57;1.65;;;1.90;86.80;;;;;;5032654;28;20051;-45
2022/01/21 02:09:36;;;;;;;11.10;3.47;;;1.90;86.70;;;;;;5031753;28;20037;-45
2022/01/21 02:12:03;;;;;;;15.23;2.42;;;1.90;86.50;;;;;;5031889;28;20057;-45
2022/01/21 02:14:38;;;;;;;11.40;1.55;;;1.80;86.70;;;;;;5029932;28;20075;-46
2022/01/21 02:22:38;;;;;;;14.93;2.30;;;1.70;87.50;;;;;;5032356;28;20083;-46
2022/01/21 02:25:20;;;;;;;27.23;4.18;;;1.70;87.80;;;;;;5032524;28;20029;-44
2022/01/21 02:28:00;;;;;;;12.35;1.63;;;1.90;87.90;;;;;;5031541;28;20040;-53
2022/01/21 02:30:26;;;;;;;13.25;2.65;;;2.20;88.30;;;;;;5034610;28;20086;-54
2022/01/21 02:32:55;;;;;;;14.18;1.95;;;2.20;88.30;;;;;;5036152;28;20042;-57
2022/01/21 02:35:24;;;;;;;12.07;1.85;;;2.20;88.50;;;;;;5036545;28;20029;-58
2022/01/21 02:37:50;;;;;;;14.40;3.15;;;2.20;88.30;;;;;;5035981;28;20504;-51
2022/01/21 02:40:17;;;;;;;10.73;2.15;;;2.20;88.10;;;;;;5036249;28;20033;-57
2022/01/21 02:42:43;;;;;;;13.75;1.88;;;2.20;87.90;;;;;;5035930;28;20476;-56
2022/01/21 02:45:13;;;;;;;7.13;1.80;;;2.20;87.80;;;;;;5036162;28;20040;-52
2022/01/21 02:47:42;;;;;;;14.43;2.00;;;2.20;87.70;;;;;;5043434;28;20029;-54
2022/01/21 02:50:10;;;;;;;12.35;2.08;;;2.20;87.50;;;;;;5034817;28;20119;-50
2022/01/21 02:52:42;;;;;;;11.95;1.85;;;2.20;87.40;;;;;;5034765;28;20467;-52
2022/01/21 02:55:11;;;;;;;15.82;2.47;;;2.10;87.50;;;;;;5034917;28;20065;-56
2022/01/21 02:57:37;;;;;;;14.90;2.47;;;2.10;87.60;;;;;;5033989;28;20029;-55
2022/01/21 03:00:04;;;;;;;10.43;2.53;;;2.10;87.70;;;;;;5033607;28;20026;-53
2022/01/21 03:02:30;;;;;;;19.23;3.00;;;2.10;87.70;;;;;;5033507;28;20029;-54
2022/01/21 03:05:09;;;;;;;13.23;4.35;;;2.00;87.70;;;;;;5035143;28;20033;-55
2022/01/21 03:07:35;;;;;;;15.18;3.42;;;2.10;87.60;;;;;;5035939;28;20035;-53
2022/01/21 03:10:01;;;;;;;10.02;1.92;;;2.20;87.50;;;;;;5035330;28;20029;-48
2022/01/21 03:12:27;;;;;;;8.57;1.88;;;2.20;87.10;;;;;;5035838;28;20036;-54
2022/01/21 03:14:52;;;;;;;15.23;2.10;;;2.30;86.60;;;;;;5035056;28;20033;-54
2022/01/21 03:17:18;;;;;;;7.45;1.48;;;2.50;86.40;;;;;;5035529;28;20402;-53
2022/01/21 03:19:44;;;;;;;8.98;1.85;;;2.50;86.00;;;;;;5035736;28;20068;-54
2022/01/21 03:22:09;;;;;;;10.05;1.80;;;2.70;85.50;;;;;;5035719;28;20057;-54
2022/01/21 03:24:35;;;;;;;11.85;2.08;;;2.70;85.30;;;;;;5035351;28;20033;-55
2022/01/21 03:27:03;;;;;;;8.40;1.90;;;2.70;85.40;;;;;;5034281;28;20465;-47
2022/01/21 03:29:29;;;;;;;7.53;1.77;;;2.70;85.40;;;;;;5034354;28;20037;-48
2022/01/21 03:31:57;;;;;;;9.30;1.60;;;2.70;85.40;;;;;;5039462;28;20044;-50
2022/01/21 03:34:22;;;;;;;10.90;2.05;;;2.60;85.60;;;;;;5035824;28;20347;-49
2022/01/21 03:36:50;;;;;;;10.98;1.95;;;2.70;85.70;;;;;;5035342;28;20106;-50
2022/01/21 03:39:16;;;;;;;12.05;2.00;;;2.70;86.00;;;;;;5033899;28;20087;-50
2022/01/21 03:41:42;;;;;;;13.85;2.33;;;2.70;86.20;;;;;;5035185;28;20459;-59
2022/01/21 03:44:09;;;;;;;15.63;4.25;;;2.70;86.50;;;;;;5033736;28;20049;-61
2022/01/21 03:46:35;;;;;;;15.02;1.98;;;2.70;87.00;;;;;;5035540;28;20351;-58
2022/01/21 03:49:03;;;;;;;16.95;2.10;;;2.80;87.10;;;;;;5034265;28;20052;-57
2022/01/21 03:51:31;;;;;;;10.80;1.70;;;2.70;87.00;;;;;;5035170;28;20084;-56
2022/01/21 03:53:57;;;;;;;8.82;1.63;;;2.70;86.90;;;;;;5017028;28;20490;-54
2022/01/21 03:56:22;;;;;;;9.25;1.55;;;2.70;87.00;;;;;;5034824;28;20104;-56
2022/01/21 03:58:48;;;;;;;7.28;1.85;;;2.70;87.10;;;;;;5033033;28;20033;-54
2022/01/21 04:01:13;;;;;;;10.82;1.70;;;2.70;87.30;;;;;;5034735;28;20049;-57
2022/01/21 04:03:40;;;;;;;8.23;1.80;;;2.70;87.50;;;;;;5033638;28;20362;-55
2022/01/21 04:06:06;;;;;;;8.50;2.17;;;2.70;87.80;;;;;;5033987;28;20034;-54
2022/01/21 04:08:31;;;;;;;7.15;1.90;;;2.70;88.10;;;;;;5050388;28;20021;-53
2022/01/21 04:10:57;;;;;;;15.95;2.65;;;2.60;88.20;;;;;;5048796;28;20087;-55
2022/01/21 04:13:26;;;;;;;15.68;1.40;;;2.60;88.40;;;;;;5033546;28;20614;-53
2022/01/21 04:15:54;;;;;;;11.80;1.65;;;2.50;88.60;;;;;;5034247;28;20029;-56
2022/01/21 04:18:20;;;;;;;11.65;1.65;;;2.50;88.80;;;;;;5050163;28;20406;-49
2022/01/21 04:20:47;;;;;;;10.40;1.85;;;2.60;88.90;;;;;;5033823;28;20025;-49
2022/01/21 04:23:14;;;;;;;6.03;1.73;;;2.60;89.00;;;;;;5034495;28;20041;-50
2022/01/21 04:25:43;;;;;;;6.47;1.10;;;2.60;89.00;;;;;;5034613;28;20432;-48
2022/01/21 04:28:09;;;;;;;8.02;1.50;;;2.50;89.00;;;;;;5033882;28;20037;-51
2022/01/21 04:30:36;;;;;;;7.45;1.30;;;2.50;89.20;;;;;;5034202;28;20467;-52
2022/01/21 04:33:03;;;;;;;7.82;1.63;;;2.50;89.20;;;;;;5033435;28;20117;-54
2022/01/21 04:35:29;;;;;;;11.68;1.67;;;2.50;89.40;;;;;;5033764;28;20336;-52
2022/01/21 04:37:56;;;;;;;7.22;1.30;;;2.50;89.60;;;;;;5033776;28;20029;-53
2022/01/21 04:40:28;;;;;;;11.88;1.75;;;2.50;89.70;;;;;;5034211;28;20021;-49
2022/01/21 04:48:26;;;;;;;9.45;1.98;;;2.70;90.00;;;;;;5034007;28;20063;-58
2022/01/21 04:50:55;;;;;;;18.52;2.38;;;2.70;90.00;;;;;;5033250;28;20423;-56
2022/01/21 04:53:23;;;;;;;10.85;2.47;;;2.70;90.00;;;;;;5013188;28;20037;-54
2022/01/21 04:55:49;;;;;;;16.08;2.05;;;2.70;89.90;;;;;;5028971;28;20037;-57
2022/01/21 04:58:15;;;;;;;16.90;2.03;;;2.70;89.70;;;;;;5033691;28;20052;-56
2022/01/21 05:00:41;;;;;;;16.45;2.85;;;2.70;89.60;;;;;;5033787;28;20083;-54
2022/01/21 05:03:07;;;;;;;12.90;1.80;;;2.70;89.60;;;;;;5033443;28;20021;-54
2022/01/21 05:05:33;;;;;;;13.52;1.98;;;2.80;89.60;;;;;;5033731;28;20432;-56
2022/01/21 05:08:04;;;;;;;9.50;2.33;;;2.80;89.50;;;;;;5033627;28;20363;-56
2022/01/21 05:10:30;;;;;;;10.32;2.03;;;2.80;89.60;;;;;;5033807;28;20041;-53
2022/01/21 05:12:58;;;;;;;14.50;3.80;;;2.90;89.60;;;;;;5033295;28;20033;-55
2022/01/21 05:15:58;;;;;;;9.18;2.03;;;3.00;89.30;;;;;;5033059;28;20032;-50
2022/01/21 05:18:25;;;;;;;11.27;2.08;;;3.10;88.50;;;;;;5032963;28;20542;-54
2022/01/21 05:20:50;;;;;;;11.48;2.15;;;3.30;88.20;;;;;;5031960;28;20029;-52
2022/01/21 05:23:16;;;;;;;4.15;0.90;;;3.30;88.10;;;;;;5033258;28;20022;-51
2022/01/21 05:25:41;;;;;;;17.17;2.40;;;3.20;88.00;;;;;;5032753;28;20025;-54
2022/01/21 05:28:07;;;;;;;13.63;1.88;;;3.20;88.30;;;;;;5032783;28;20117;-49
2022/01/21 05:30:33;;;;;;;9.05;2.13;;;3.10;88.40;;;;;;5033016;28;20029;-48
2022/01/21 05:32:59;;;;;;;11.70;2.70;;;3.10;88.60;;;;;;5047573;28;20025;-48
2022/01/21 05:35:25;;;;;;;9.82;2.22;;;3.00;88.60;;;;;;5039793;28;20312;-49
2022/01/21 05:37:50;;;;;;;5.38;1.30;;;3.00;88.80;;;;;;5032981;28;20340;-51
2022/01/21 05:40:18;;;;;;;10.23;2.10;;;2.90;88.90;;;;;;5033661;28;20324;-50
2022/01/21 05:42:43;;;;;;;11.63;1.70;;;2.90;88.90;;;;;;5031857;28;20053;-51
2022/01/21 05:47:55;;;;;;;11.60;2.00;;;2.90;89.00;;;;;;5033145;28;20114;-61
2022/01/21 05:50:20;;;;;;;7.57;1.73;;;3.00;89.40;;;;;;5033060;28;20459;-60
2022/01/21 05:52:47;;;;;;;11.13;1.48;;;2.90;88.90;;;;;;5032759;28;20068;-63
2022/01/21 05:55:14;;;;;;;14.85;2.35;;;2.80;88.90;;;;;;5031928;28;20037;-62
2022/01/21 05:57:40;;;;;;;7.88;0.98;;;2.70;89.00;;;;;;5031528;28;20390;-61
2022/01/21 06:00:06;;;;;;;6.35;1.17;;;2.70;89.30;;;;;;5032679;28;20092;-60
2022/01/21 06:02:35;;;;;;;4.68;1.13;;;2.60;89.40;;;;;;5033438;28;20398;-57
2022/01/21 06:05:01;;;;;;;8.68;0.90;;;2.50;89.30;;;;;;5036761;28;20382;-54
2022/01/21 06:07:27;;;;;;;4.95;1.10;;;2.50;89.20;;;;;;5036545;28;20128;-54
2022/01/21 06:09:53;;;;;;;7.20;1.08;;;2.50;89.10;;;;;;5035626;28;20124;-58
2022/01/21 06:12:18;;;;;;;9.13;1.15;;;2.50;89.10;;;;;;5019164;28;20108;-58
2022/01/21 06:14:45;;;;;;;7.93;1.85;;;2.50;89.10;;;;;;5036234;28;20048;-57
2022/01/21 06:17:14;;;;;;;5.80;1.05;;;2.50;89.20;;;;;;5035289;28;20026;-55
2022/01/21 06:19:44;;;;;;;5.13;1.05;;;2.50;89.40;;;;;;5036075;28;20033;-53
2022/01/21 06:22:10;;;;;;;8.13;1.25;;;2.60;89.40;;;;;;5032824;28;20036;-54
2022/01/21 06:24:38;;;;;;;7.78;2.03;;;2.60;89.30;;;;;;5035237;28;20093;-52
2022/01/21 06:27:04;;;;;;;5.38;1.38;;;2.70;89.30;;;;;;5035987;28;20080;-57
2022/01/21 06:29:31;;;;;;;8.88;1.95;;;2.70;89.30;;;;;;5035783;28;20029;-57
2022/01/21 06:31:56;;;;;;;10.45;1.83;;;2.70;89.40;;;;;;5039361;28;20112;-55
2022/01/21 06:34:22;;;;;;;13.75;2.30;;;2.90;89.50;;;;;;5036472;28;20125;-55
2022/01/21 06:36:48;;;;;;;11.93;2.13;;;2.90;89.50;;;;;;5036357;28;20052;-57
2022/01/21 06:39:14;;;;;;;19.45;3.42;;;3.00;89.70;;;;;;5034793;28;20036;-52
2022/01/21 06:41:40;;;;;;;11.68;2.13;;;3.00;89.70;;;;;;5035666;28;20049;-58
2022/01/21 06:44:06;;;;;;;9.07;1.58;;;3.10;89.70;;;;;;5034726;28;20045;-62
2022/01/21 06:46:33;;;;;;;9.65;1.88;;;3.10;89.70;;;;;;5036176;28;20364;-62
2022/01/21 06:48:59;;;;;;;8.57;2.05;;;3.10;89.80;;;;;;5035670;28;20474;-60
2022/01/21 06:51:25;;;;;;;14.93;3.70;;;3.10;89.90;;;;;;5035056;28;20037;-61
2022/01/21 06:53:50;;;;;;;11.98;2.75;;;3.10;89.90;;;;;;5034644;28;20415;-60
2022/01/21 06:56:16;;;;;;;9.45;2.55;;;3.10;90.10;;;;;;5034625;28;20132;-60
2022/01/21 06:58:44;;;;;;;10.82;1.80;;;3.10;90.10;;;;;;5035090;28;20359;-59
2022/01/21 07:01:10;;;;;;;10.80;1.92;;;3.10;90.30;;;;;;5034289;28;20025;-55
2022/01/21 07:03:37;;;;;;;11.80;1.63;;;3.20;90.30;;;;;;5035092;28;20026;-58
2022/01/21 07:06:04;;;;;;;12.25;1.67;;;3.20;90.30;;;;;;5034903;28;20057;-57
2022/01/21 07:08:33;;;;;;;16.60;3.63;;;3.20;90.20;;;;;;5035375;28;20478;-54
2022/01/21 07:11:01;;;;;;;9.75;2.38;;;3.20;90.20;;;;;;5035783;28;20033;-57
2022/01/21 07:13:27;;;;;;;10.98;1.92;;;3.20;90.20;;;;;;5035480;28;20448;-52
2022/01/21 07:15:53;;;;;;;12.13;2.17;;;3.30;90.10;;;;;;5039715;28;20038;-49
2022/01/21 07:18:18;;;;;;;17.58;2.50;;;3.30;90.00;;;;;;5033939;28;20039;-56
2022/01/21 07:20:44;;;;;;;8.93;1.98;;;3.30;89.80;;;;;;5034857;28;20378;-54
2022/01/21 07:23:12;;;;;;;11.68;2.42;;;3.30;89.70;;;;;;5034756;28;20033;-54
2022/01/21 07:25:38;;;;;;;12.75;1.50;;;3.30;89.60;;;;;;5033037;28;20036;-49
2022/01/21 07:28:05;;;;;;;15.32;2.70;;;3.30;89.60;;;;;;5034458;28;20030;-53
2022/01/21 07:30:30;;;;;;;13.10;2.97;;;3.30;89.60;;;;;;5033930;28;20150;-52
2022/01/21 07:32:56;;;;;;;6.80;1.85;;;3.30;89.50;;;;;;5030989;28;20486;-52
2022/01/21 07:35:22;;;;;;;14.38;2.20;;;3.30;89.60;;;;;;5034371;28;20442;-52
2022/01/21 07:37:47;;;;;;;18.35;3.42;;;3.30;89.60;;;;;;5034670;28;20063;-55
2022/01/21 07:40:13;;;;;;;20.95;4.00;;;3.30;89.60;;;;;;5033880;28;20026;-54
2022/01/21 07:42:39;;;;;;;15.32;3.40;;;3.30;89.60;;;;;;5033818;28;20350;-49
2022/01/21 07:45:05;;;;;;;9.70;1.85;;;3.30;89.70;;;;;;5034151;28;20047;-52
2022/01/21 07:47:31;;;;;;;6.97;2.22;;;3.30;89.80;;;;;;5034841;28;20024;-49
2022/01/21 07:49:56;;;;;;;15.93;2.58;;;3.30;89.70;;;;;;5032855;28;20378;-50
2022/01/21 07:52:22;;;;;;;10.75;1.83;;;3.30;89.80;;;;;;5033599;28;20497;-48
2022/01/21 07:54:47;;;;;;;18.17;4.43;;;3.40;89.80;;;;;;5032594;28;20128;-48
2022/01/21 07:57:13;;;;;;;13.07;2.15;;;3.40;89.70;;;;;;5033584;28;20048;-51
2022/01/21 07:59:39;;;;;;;20.30;2.60;;;3.40;89.70;;;;;;5033153;28;20025;-49
2022/01/21 08:02:05;;;;;;;12.95;2.30;;;3.50;89.70;;;;;;5034113;28;20474;-51
2022/01/21 08:04:31;;;;;;;9.85;1.70;;;3.50;89.70;;;;;;5033244;28;20034;-51
2022/01/21 08:06:57;;;;;;;16.00;4.10;;;3.50;89.60;;;;;;5041574;28;20029;-49
2022/01/21 08:09:26;;;;;;;13.77;3.03;;;3.50;89.50;;;;;;5031565;28;20536;-50
2022/01/21 08:11:55;;;;;;;17.00;2.57;;;3.50;89.60;;;;;;5034203;28;20040;-50
2022/01/21 08:14:22;;;;;;;21.20;3.58;;;3.50;89.60;;;;;;5033954;28;20026;-50
2022/01/21 08:16:53;;;;;;;12.75;2.58;;;3.50;89.60;;;;;;5033630;28;20125;-48
2022/01/21 08:19:21;;;;;;;11.77;2.78;;;3.50;89.60;;;;;;5031926;28;20033;-48
2022/01/21 08:21:46;;;;;;;13.68;2.22;;;3.60;89.60;;;;;;5033856;28;20128;-48
2022/01/21 08:24:12;;;;;;;15.55;3.35;;;3.70;89.50;;;;;;5032733;28;20108;-48
2022/01/21 08:26:38;;;;;;;12.68;2.42;;;3.70;89.40;;;;;;5036424;28;20044;-47
2022/01/21 08:29:06;;;;;;;16.95;4.20;;;3.80;89.40;;;;;;5032831;28;20104;-46
2022/01/21 08:31:33;;;;;;;22.50;4.10;;;3.90;89.30;;;;;;5036524;28;20025;-49
2022/01/21 08:33:58;;;;;;;18.17;3.10;;;3.90;89.20;;;;;;5054456;28;20516;-47
2022/01/21 08:36:25;;;;;;;11.00;2.28;;;3.90;89.10;;;;;;5044194;28;20034;-48
2022/01/21 08:38:51;;;;;;;13.50;1.90;;;4.00;88.90;;;;;;5033870;28;20087;-47
2022/01/21 08:41:17;;;;;;;13.27;2.80;;;4.00;88.70;;;;;;5033482;28;20024;-47
2022/01/21 08:43:43;;;;;;;21.13;2.85;;;4.10;88.60;;;;;;5032735;28;20045;-47
2022/01/21 08:46:11;;;;;;;18.17;4.57;;;4.20;88.70;;;;;;5038635;28;20095;-49
2022/01/21 08:48:37;;;;;;;12.85;3.05;;;4.20;88.40;;;;;;5032716;28;20025;-46
2022/01/21 08:51:09;;;;;;;18.45;3.58;;;4.30;88.20;;;;;;5031073;28;20409;-46
2022/01/21 08:53:36;;;;;;;17.70;2.65;;;4.40;88.00;;;;;;5039770;28;20016;-50
2022/01/21 08:56:02;;;;;;;30.50;3.72;;;4.50;87.80;;;;;;5031610;28;20033;-52
2022/01/21 08:58:28;;;;;;;14.75;2.90;;;4.50;87.70;;;;;;5039534;28;20033;-48
2022/01/21 09:00:56;;;;;;;17.88;4.05;;;4.60;87.40;;;;;;5037602;28;20091;-47
2022/01/21 09:03:24;;;;;;;12.30;3.88;;;4.70;87.20;;;;;;5050314;28;20446;-46
2022/01/21 09:05:50;;;;;;;11.68;2.65;;;4.90;86.90;;;;;;5032420;28;20033;-46
2022/01/21 09:08:23;;;;;;;16.42;4.28;;;5.10;86.70;;;;;;5037339;28;20108;-45
2022/01/21 09:10:52;;;;;;;16.88;3.00;;;5.20;86.40;;;;;;5032493;28;20109;-45
2022/01/21 09:13:19;;;;;;;17.77;3.20;;;5.40;86.40;;;;;;5039228;28;20040;-47
2022/01/21 09:15:47;;;;;;;20.67;6.15;;;5.40;86.20;;;;;;5032962;28;20025;-47
2022/01/21 09:18:18;;;;;;;19.85;3.97;;;5.60;86.40;;;;;;5034072;28;20415;-49
2022/01/21 09:20:49;;;;;;;27.17;5.18;;;5.70;86.40;;;;;;5033239;28;20041;-45
2022/01/21 09:23:15;;;;;;;18.60;4.93;;;5.70;86.20;;;;;;5032737;28;20095;-45
2022/01/21 09:25:40;;;;;;;19.02;5.10;;;5.70;85.90;;;;;;5032913;28;20514;-45
2022/01/21 09:28:08;;;;;;;20.70;4.85;;;5.70;85.80;;;;;;5032538;28;20033;-46
2022/01/21 09:30:34;;;;;;;24.52;4.20;;;5.80;85.90;;;;;;5032224;28;20048;-46
2022/01/21 09:33:00;;;;;;;17.80;5.10;;;5.80;85.70;;;;;;5033590;28;20030;-46
2022/01/21 09:35:26;;;;;;;16.58;3.63;;;5.80;85.40;;;;;;5035335;28;20580;-45
2022/01/21 09:37:53;;;;;;;12.90;3.28;;;5.70;85.30;;;;;;5031523;28;20038;-45
2022/01/21 09:40:21;;;;;;;18.75;4.63;;;5.70;85.30;;;;;;5020303;28;20033;-49
2022/01/21 09:42:47;;;;;;;23.13;3.33;;;5.80;85.50;;;;;;5035649;28;20049;-46
2022/01/21 09:45:19;;;;;;;16.20;3.58;;;5.80;85.70;;;;;;5036847;28;20045;-45
2022/01/21 09:47:47;;;;;;;21.10;3.85;;;5.90;85.60;;;;;;5036922;28;20034;-45
2022/01/21 09:50:18;;;;;;;25.23;4.40;;;6.00;85.10;;;;;;5034708;28;20757;-45
2022/01/21 09:52:52;;;;;;;17.00;3.45;;;5.90;84.70;;;;;;5013487;28;20379;-47
2022/01/21 09:55:21;;;;;;;17.13;3.35;;;5.90;84.60;;;;;;5035915;28;20315;-46
2022/01/21 09:57:49;;;;;;;19.10;3.00;;;5.90;84.20;;;;;;5034857;28;20358;-47
2022/01/21 10:00:16;;;;;;;19.48;4.55;;;5.90;84.60;;;;;;5036190;28;20355;-50
2022/01/21 10:02:45;;;;;;;16.25;3.28;;;5.90;85.00;;;;;;5032420;28;20029;-47
2022/01/21 10:05:12;;;;;;;17.30;4.18;;;5.90;85.30;;;;;;5033604;28;20403;-46
2022/01/21 10:07:44;;;;;;;23.85;4.97;;;5.90;84.90;;;;;;5036020;28;20406;-45
2022/01/21 10:10:09;;;;;;;25.55;3.47;;;5.90;84.70;;;;;;5036087;28;20037;-45
2022/01/21 10:12:39;;;;;;;19.75;3.78;;;5.80;84.20;;;;;;5035520;28;20027;-46
2022/01/21 10:15:07;;;;;;;7.00;1.80;;;5.80;84.30;;;;;;5036337;28;20030;-47
2022/01/21 10:17:33;;;;;;;17.20;2.83;;;5.70;83.70;;;;;;5036012;28;20040;-46
2022/01/21 10:20:13;;;;;;;14.52;2.05;;;5.70;83.20;;;;;;5035506;28;20350;-45
2022/01/21 10:22:55;;;;;;;15.15;3.17;;;5.60;82.50;;;;;;5033705;28;20040;-47
2022/01/21 10:25:23;;;;;;;9.52;1.90;;;5.60;82.60;;;;;;5033277;28;20034;-46
2022/01/21 10:27:48;;;;;;;5.90;2.13;;;5.50;82.40;;;;;;5034163;28;20033;-49
2022/01/21 10:30:26;;;;;;;10.13;1.67;;;5.60;82.20;;;;;;5035857;28;20055;-46
2022/01/21 10:32:54;;;;;;;15.63;2.30;;;5.60;82.20;;;;;;5034224;28;20037;-51
2022/01/21 10:35:22;;;;;;;16.88;3.30;;;5.70;82.10;;;;;;5018415;28;20427;-47
2022/01/21 10:37:48;;;;;;;13.30;1.80;;;5.70;82.50;;;;;;5035818;28;20504;-46
2022/01/21 10:40:16;;;;;;;11.23;2.38;;;5.80;82.80;;;;;;5034953;28;20086;-47
2022/01/21 10:42:42;;;;;;;11.10;2.17;;;5.80;82.80;;;;;;5035195;28;20132;-49
2022/01/21 10:45:09;;;;;;;12.13;2.58;;;5.80;82.90;;;;;;5035298;28;20029;-46
2022/01/21 10:47:41;;;;;;;16.95;2.03;;;5.80;83.00;;;;;;5034549;28;20037;-49
2022/01/21 10:50:15;;;;;;;17.48;2.95;;;5.80;83.40;;;;;;5034902;28;20030;-48
2022/01/21 10:52:46;;;;;;;10.93;2.33;;;5.90;83.60;;;;;;5034824;28;20446;-47
2022/01/21 10:55:38;;;;;;;13.77;3.47;;;5.80;83.90;;;;;;5034877;28;20677;-47
2022/01/21 10:58:12;;;;;;;11.82;3.25;;;5.90;84.00;;;;;;5032988;28;20037;-45
2022/01/21 11:00:59;;;;;;;17.15;5.35;;;5.90;84.00;;;;;;5032604;28;20040;-46
2022/01/21 11:03:26;;;;;;;15.60;3.28;;;5.90;84.30;;;;;;5034003;28;20033;-48
2022/01/21 11:06:19;;;;;;;12.18;2.00;;;5.90;84.40;;;;;;5034592;28;20100;-46
2022/01/21 11:08:44;;;;;;;13.15;3.20;;;5.90;84.10;;;;;;5035153;28;20030;-48
2022/01/21 11:11:13;;;;;;;20.13;3.60;;;5.90;84.20;;;;;;5034391;28;20028;-50
2022/01/21 11:13:40;;;;;;;17.17;2.53;;;5.90;84.60;;;;;;5035112;28;20037;-47
2022/01/21 11:16:17;;;;;;;11.93;2.95;;;5.90;84.80;;;;;;5033984;28;20029;-45
2022/01/21 11:19:05;;;;;;;19.23;3.67;;;5.90;84.80;;;;;;5035630;28;20029;-47
2022/01/21 11:21:49;;;;;;;21.67;3.17;;;5.90;85.00;;;;;;5016409;28;20391;-46
2022/01/21 11:24:19;;;;;;;11.00;2.65;;;5.90;85.30;;;;;;5035141;28;20034;-50
2022/01/21 11:27:08;;;;;;;18.52;4.97;;;5.90;85.20;;;;;;5017348;28;20325;-50
2022/01/21 11:29:35;;;;;;;32.75;4.53;;;5.90;85.40;;;;;;5034545;28;20585;-46
2022/01/21 11:32:01;;;;;;;17.98;3.15;;;6.00;85.50;;;;;;5034008;28;20045;-46
2022/01/21 11:34:27;;;;;;;11.57;2.97;;;6.00;85.50;;;;;;5035099;28;20112;-46
2022/01/21 11:36:53;;;;;;;21.00;2.85;;;6.00;85.40;;;;;;5034857;28;20124;-47
2022/01/21 11:39:23;;;;;;;16.50;3.42;;;6.10;85.50;;;;;;5034948;28;20053;-47
2022/01/21 11:41:51;;;;;;;19.38;4.60;;;6.10;85.40;;;;;;5034263;28;20037;-48
2022/01/21 11:44:20;;;;;;;23.00;3.38;;;6.10;85.60;;;;;;5033485;28;20095;-48
2022/01/21 11:50:00;;;;;;;8.93;2.30;;;6.20;85.70;;;;;;5011529;28;20272;-52
2022/01/21 11:52:26;;;;;;;21.92;3.83;;;6.20;85.80;;;;;;5034323;28;20100;-53
2022/01/21 11:54:52;;;;;;;17.75;3.03;;;6.20;86.00;;;;;;5034031;28;20605;-48
2022/01/21 11:57:28;;;;;;;18.15;3.67;;;6.10;86.10;;;;;;5033792;28;20068;-47
2022/01/21 12:00:16;;;;;;;13.05;3.03;;;6.20;86.20;;;;;;5030941;28;20071;-50
2022/01/21 12:02:50;;;;;;;20.00;3.88;;;6.20;86.10;;;;;;5032848;28;20022;-48
2022/01/21 12:05:25;;;;;;;14.88;3.72;;;6.10;86.10;;;;;;5033202;28;20022;-48
2022/01/21 12:07:52;;;;;;;17.08;3.95;;;6.20;86.30;;;;;;5028235;28;20099;-47
2022/01/21 12:10:31;;;;;;;15.93;3.15;;;6.20;86.40;;;;;;5026938;28;20466;-49
2022/01/21 12:13:14;;;;;;;24.08;4.13;;;6.10;86.50;;;;;;5030505;28;20069;-51
2022/01/21 12:15:47;;;;;;;18.73;3.53;;;6.20;86.50;;;;;;5023076;28;20042;-49
2022/01/21 12:18:44;;;;;;;15.40;2.58;;;6.20;86.50;;;;;;5028832;28;20080;-51
2022/01/21 12:21:30;;;;;;;14.23;2.30;;;6.20;86.50;;;;;;5029152;28;20026;-51
2022/01/21 12:23:56;;;;;;;17.80;2.85;;;6.20;86.40;;;;;;5026780;28;20021;-46
2022/01/21 12:26:26;;;;;;;15.95;3.03;;;6.20;86.30;;;;;;5025472;28;20421;-50
2022/01/21 12:28:57;;;;;;;19.05;3.53;;;6.20;86.40;;;;;;5031203;28;20029;-50
2022/01/21 12:31:52;;;;;;;13.43;2.15;;;6.20;86.60;;;;;;5029757;28;20037;-47
2022/01/21 12:34:18;;;;;;;13.02;1.95;;;6.20;86.80;;;;;;5026870;28;20041;-48
2022/01/21 12:36:58;;;;;;;10.90;2.08;;;6.20;86.90;;;;;;5021366;28;20033;-48
2022/01/21 12:39:49;;;;;;;13.40;2.05;;;6.10;87.10;;;;;;5026016;28;20061;-48
2022/01/21 12:42:23;;;;;;;11.80;2.03;;;6.10;87.60;;;;;;5029411;28;20554;-48
2022/01/21 12:45:19;;;;;;;7.88;2.20;;;6.10;87.90;;;;;;5009290;28;20026;-48
2022/01/21 12:47:48;;;;;;;9.15;1.98;;;6.10;88.10;;;;;;5007739;28;20046;-48
2022/01/21 12:50:30;;;;;;;16.10;3.33;;;6.10;88.30;;;;;;5012088;28;20069;-46
2022/01/21 12:55:55;;;;;;;25.52;3.55;;;6.20;88.40;;;;;;5013713;28;20041;-47
2022/01/21 12:58:42;;;;;;;10.48;2.15;;;6.20;88.50;;;;;;5013448;28;20116;-49
2022/01/21 13:01:10;;;;;;;10.60;1.55;;;6.30;88.50;;;;;;5013590;28;20113;-47
2022/01/21 13:03:50;;;;;;;14.00;2.50;;;6.30;88.70;;;;;;5012719;28;20091;-51
2022/01/21 13:06:19;;;;;;;12.65;2.63;;;6.40;88.70;;;;;;5012749;28;20022;-48
2022/01/21 13:09:03;;;;;;;14.95;4.47;;;6.40;88.60;;;;;;5011612;28;20030;-48
2022/01/21 13:11:30;;;;;;;14.30;3.38;;;6.40;88.70;;;;;;5012582;28;20026;-49
2022/01/21 13:14:34;;;;;;;31.23;4.40;;;6.40;88.70;;;;;;5013482;28;20018;-46
2022/01/21 13:17:05;;;;;;;23.08;3.45;;;6.40;88.50;;;;;;5011727;28;20121;-50
2022/01/21 13:19:45;;;;;;;16.42;2.78;;;6.40;88.50;;;;;;5013538;28;20333;-48
2022/01/21 13:22:20;;;;;;;9.43;2.10;;;6.30;88.10;;;;;;5013149;28;20022;-46
2022/01/21 13:25:36;;;;;;;19.35;3.15;;;6.30;87.80;;;;;;5013103;28;20101;-49
2022/01/21 13:27:51;;;;;;;7.53;1.50;;;6.30;87.30;;;;;;5012947;28;20391;-48
2022/01/21 13:30:20;;;;;;;10.70;1.58;;;6.30;86.90;;;;;;5012886;28;20064;-47
2022/01/21 13:32:46;;;;;;;10.10;1.30;;;6.30;86.80;;;;;;5013272;28;20392;-49
2022/01/21 13:35:13;;;;;;;6.30;1.30;;;6.30;86.80;;;;;;5011063;28;20038;-50
2022/01/21 13:37:41;;;;;;;10.90;2.00;;;6.30;87.00;;;;;;5010886;28;20030;-45
2022/01/21 13:40:08;;;;;;;12.68;1.90;;;6.40;87.10;;;;;;5012482;28;20703;-49
2022/01/21 13:42:35;;;;;;;6.50;1.27;;;6.40;87.20;;;;;;5013878;28;20030;-48
2022/01/21 13:45:08;;;;;;;15.30;2.13;;;6.40;87.30;;;;;;5032226;28;20033;-48
2022/01/21 13:47:33;;;;;;;11.65;2.42;;;6.40;87.40;;;;;;5033000;28;20026;-45
2022/01/21 13:50:22;;;;;;;12.93;2.33;;;6.40;87.50;;;;;;5032759;28;20036;-47
2022/01/21 13:52:54;;;;;;;11.40;1.65;;;6.50;88.20;;;;;;5032521;28;20746;-47